createdAt,value
2023-02-18T00:01:41.228Z,6.10
2023-02-18T00:04:10.403Z,6.10
2023-02-18T00:06:39.061Z,6.10
2023-02-18T00:09:08.978Z,6.10
2023-02-18T00:11:38.735Z,6.20
2023-02-18T00:14:09.085Z,6.20
2023-02-18T00:16:37.179Z,6.30
2023-02-18T00:19:09.517Z,6.30
2023-02-18T00:21:38.139Z,6.40
2023-02-18T00:24:07.975Z,6.40
2023-02-18T00:26:36.761Z,6.40
2023-02-18T00:29:05.642Z,6.50
2023-02-18T00:31:36.317Z,6.60
2023-02-18T00:34:06.943Z,6.60
2023-02-18T00:36:36.644Z,6.60
2023-02-18T00:39:11.072Z,6.70
2023-02-18T00:41:41.372Z,6.70
2023-02-18T00:44:10.027Z,6.80
2023-02-18T00:46:38.694Z,6.80
2023-02-18T00:49:09.521Z,6.90
2023-02-18T00:51:37.808Z,7.00
2023-02-18T00:54:06.121Z,7.10
2023-02-18T00:56:34.373Z,7.20
2023-02-18T00:59:02.675Z,7.20
2023-02-18T01:01:31.600Z,7.30
2023-02-18T01:03:59.818Z,7.30
2023-02-18T01:06:29.465Z,7.40
2023-02-18T01:08:57.833Z,7.40
2023-02-18T01:11:26.100Z,7.40
2023-02-18T01:13:54.288Z,7.50
2023-02-18T01:16:23.116Z,7.50
2023-02-18T01:18:51.299Z,7.50
2023-02-18T01:21:19.504Z,7.50
2023-02-18T01:23:49.379Z,7.50
2023-02-18T01:26:17.499Z,7.60
2023-02-18T01:28:45.741Z,7.60
2023-02-18T01:31:15.838Z,7.60
2023-02-18T01:33:44.744Z,7.70
2023-02-18T01:36:13.465Z,7.70
2023-02-18T01:38:42.122Z,7.70
2023-02-18T01:41:12.190Z,7.70
2023-02-18T01:43:40.685Z,7.70
2023-02-18T01:46:17.976Z,7.60
2023-02-18T01:48:50.958Z,7.70
2023-02-18T01:51:22.982Z,7.70
2023-02-18T01:53:57.289Z,7.60
2023-02-18T01:56:33.717Z,7.60
2023-02-18T01:59:06.838Z,7.60
2023-02-18T02:01:36.026Z,7.60
2023-02-18T02:04:04.466Z,7.60
2023-02-18T02:06:32.980Z,7.60
2023-02-18T02:09:04.886Z,7.60
2023-02-18T02:12:02.352Z,7.70
2023-02-18T02:14:48.648Z,7.70
2023-02-18T02:17:29.162Z,7.70
2023-02-18T02:20:31.167Z,7.70
2023-02-18T02:23:47.177Z,7.70
2023-02-18T02:26:57.181Z,7.80
2023-02-18T02:29:58.944Z,7.80
2023-02-18T02:32:57.487Z,7.80
2023-02-18T02:35:31.288Z,7.80
2023-02-18T02:38:06.648Z,7.80
2023-02-18T02:40:43.892Z,7.80
2023-02-18T02:43:22.167Z,7.80
2023-02-18T02:45:56.932Z,7.90
2023-02-18T02:48:37.046Z,7.90
2023-02-18T02:51:12.384Z,7.90
2023-02-18T02:53:43.591Z,7.90
2023-02-18T02:56:15.870Z,7.90
2023-02-18T02:58:46.172Z,7.90
2023-02-18T03:01:23.083Z,8.00
2023-02-18T03:04:12.832Z,8.00
2023-02-18T03:06:59.030Z,8.00
2023-02-18T03:09:35.168Z,8.10
2023-02-18T03:12:11.169Z,8.10
2023-02-18T03:14:49.203Z,8.10
2023-02-18T03:17:26.122Z,8.10
2023-02-18T03:19:58.355Z,8.10
2023-02-18T03:22:31.830Z,8.10
2023-02-18T03:25:05.146Z,8.10
2023-02-18T03:27:35.861Z,8.10
2023-02-18T03:30:11.773Z,8.10
2023-02-18T03:32:39.984Z,8.20
2023-02-18T03:35:12.508Z,8.10
2023-02-18T03:37:48.968Z,8.20
2023-02-18T03:40:19.116Z,8.20
2023-02-18T03:42:47.473Z,8.10
2023-02-18T03:45:15.599Z,8.20
2023-02-18T03:47:44.012Z,8.20
2023-02-18T03:50:12.237Z,8.20
2023-02-18T03:52:41.682Z,8.10
2023-02-18T03:55:10.512Z,8.10
2023-02-18T03:57:38.960Z,8.10
2023-02-18T04:00:09.395Z,8.10
2023-02-18T04:02:44.083Z,8.00
2023-02-18T04:05:12.309Z,8.00
2023-02-18T04:07:42.087Z,8.00
2023-02-18T04:10:10.994Z,8.00
2023-02-18T04:12:39.172Z,8.00
2023-02-18T04:15:07.870Z,8.00
2023-02-18T04:17:36.185Z,7.90
2023-02-18T04:20:04.789Z,7.90
2023-02-18T04:22:32.858Z,7.90
2023-02-18T04:25:02.444Z,7.90
2023-02-18T04:27:30.493Z,7.80
2023-02-18T04:29:58.850Z,7.80
2023-02-18T04:32:27.331Z,7.80
2023-02-18T04:34:55.463Z,7.70
2023-02-18T04:37:23.747Z,7.70
2023-02-18T04:39:52.236Z,7.60
2023-02-18T04:42:21.659Z,7.60
2023-02-18T04:44:49.841Z,7.60
2023-02-18T04:47:18.353Z,7.50
2023-02-18T04:49:46.449Z,7.50
2023-02-18T04:52:14.601Z,7.40
2023-02-18T04:54:43.047Z,7.40
2023-02-18T04:57:11.605Z,7.30
2023-02-18T04:59:41.408Z,7.20
2023-02-18T05:02:09.693Z,7.20
2023-02-18T05:04:37.810Z,7.20
2023-02-18T05:07:06.025Z,7.20
2023-02-18T05:09:34.303Z,7.20
2023-02-18T05:12:02.385Z,7.20
2023-02-18T05:14:30.817Z,7.10
2023-02-18T05:17:00.453Z,7.20
2023-02-18T05:19:28.609Z,7.20
2023-02-18T05:21:56.986Z,7.20
2023-02-18T05:24:25.419Z,7.20
2023-02-18T05:26:53.543Z,7.20
2023-02-18T05:29:21.809Z,7.20
2023-02-18T05:31:50.343Z,7.20
2023-02-18T05:34:19.763Z,7.20
2023-02-18T05:36:48.146Z,7.10
2023-02-18T05:39:16.596Z,7.10
2023-02-18T05:41:44.601Z,7.10
2023-02-18T05:44:30.228Z,7.20
2023-02-18T05:46:58.696Z,7.10
2023-02-18T05:49:28.789Z,7.20
2023-02-18T05:51:57.498Z,7.20
2023-02-18T05:54:25.924Z,7.20
2023-02-18T05:56:56.770Z,7.20
2023-02-18T05:59:25.832Z,7.20
2023-02-18T06:01:53.965Z,7.20
2023-02-18T06:04:22.324Z,7.10
2023-02-18T06:06:52.051Z,7.10
2023-02-18T06:09:20.199Z,7.10
2023-02-18T06:11:48.453Z,7.10
2023-02-18T06:14:16.939Z,7.20
2023-02-18T06:16:44.954Z,7.20
2023-02-18T06:19:13.245Z,7.20
2023-02-18T06:21:41.511Z,7.20
2023-02-18T06:24:11.133Z,7.20
2023-02-18T06:26:39.680Z,7.20
2023-02-18T06:29:08.215Z,7.20
2023-02-18T06:31:36.442Z,7.20
2023-02-18T06:34:04.575Z,7.10
2023-02-18T06:36:32.998Z,7.10
2023-02-18T06:39:03.407Z,7.10
2023-02-18T06:41:33.633Z,7.10
2023-02-18T06:44:01.794Z,7.10
2023-02-18T06:46:30.129Z,7.00
2023-02-18T06:48:58.651Z,7.00
2023-02-18T06:51:27.145Z,7.00
2023-02-18T06:53:55.476Z,7.00
2023-02-18T06:56:24.070Z,7.00
2023-02-18T06:58:53.498Z,7.00
2023-02-18T07:01:21.809Z,7.00
2023-02-18T07:03:50.486Z,7.10
2023-02-18T07:06:18.693Z,7.10
2023-02-18T07:08:46.947Z,7.10
2023-02-18T07:11:16.576Z,7.10
2023-02-18T07:13:44.772Z,7.10
2023-02-18T07:16:14.426Z,7.20
2023-02-18T07:18:42.912Z,7.20
2023-02-18T07:21:11.040Z,7.20
2023-02-18T07:23:39.302Z,7.20
2023-02-18T07:26:10.944Z,7.20
2023-02-18T07:28:39.559Z,7.20
2023-02-18T07:31:08.449Z,7.20
2023-02-18T07:33:38.395Z,7.20
2023-02-18T07:36:07.892Z,7.20
2023-02-18T07:38:36.290Z,7.20
2023-02-18T07:41:04.941Z,7.20
2023-02-18T07:43:33.035Z,7.20
2023-02-18T07:46:01.376Z,7.20
2023-02-18T07:48:29.803Z,7.20
2023-02-18T07:50:59.289Z,7.20
2023-02-18T07:53:27.603Z,7.30
2023-02-18T07:55:56.054Z,7.30
2023-02-18T07:58:27.004Z,7.40
2023-02-18T08:00:56.766Z,7.40
2023-02-18T08:03:27.703Z,7.50
2023-02-18T08:05:56.572Z,7.50
2023-02-18T08:08:27.976Z,7.50
2023-02-18T08:10:59.683Z,7.60
2023-02-18T08:13:29.518Z,7.60
2023-02-18T08:15:59.289Z,7.70
2023-02-18T08:18:28.278Z,7.70
2023-02-18T08:23:44.242Z,7.80
2023-02-18T08:26:12.954Z,7.90
2023-02-18T08:28:43.602Z,8.00
2023-02-18T08:31:19.947Z,8.10
2023-02-18T08:33:48.983Z,8.20
2023-02-18T08:36:17.072Z,8.40
2023-02-18T08:38:47.035Z,8.50
2023-02-18T08:41:15.729Z,8.60
2023-02-18T08:43:44.215Z,8.70
2023-02-18T08:46:16.173Z,8.90
2023-02-18T08:48:53.490Z,9.00
2023-02-18T08:51:24.231Z,9.10
2023-02-18T08:53:53.633Z,9.30
2023-02-18T08:56:21.661Z,9.40
2023-02-18T08:58:50.256Z,9.40
2023-02-18T09:01:18.481Z,9.50
2023-02-18T09:03:46.548Z,9.70
2023-02-18T09:06:14.934Z,9.80
2023-02-18T09:08:43.137Z,9.90
2023-02-18T09:11:13.579Z,9.90
2023-02-18T09:13:42.302Z,9.90
2023-02-18T09:16:13.963Z,10.00
2023-02-18T09:18:42.759Z,10.10
2023-02-18T09:21:14.091Z,10.20
2023-02-18T09:23:42.855Z,10.20
2023-02-18T09:26:16.285Z,10.30
2023-02-18T09:28:45.017Z,10.30
2023-02-18T09:31:16.204Z,10.40
2023-02-18T09:33:47.304Z,10.40
2023-02-18T09:36:15.915Z,10.40
2023-02-18T09:38:44.057Z,10.40
2023-02-18T09:41:28.172Z,10.50
2023-02-18T09:44:00.523Z,10.50
2023-02-18T09:46:34.358Z,10.60
2023-02-18T09:49:04.895Z,10.60
2023-02-18T09:51:33.591Z,10.60
2023-02-18T09:54:01.941Z,10.50
2023-02-18T09:56:35.834Z,10.60
2023-02-18T09:59:10.472Z,10.60
2023-02-18T10:01:41.168Z,10.60
2023-02-18T10:04:17.327Z,10.50
2023-02-18T10:06:47.673Z,10.50
2023-02-18T10:09:24.893Z,10.50
2023-02-18T10:11:58.230Z,10.50
2023-02-18T10:14:27.723Z,10.50
2023-02-18T10:16:55.957Z,10.60
2023-02-18T10:19:29.211Z,10.60
2023-02-18T10:21:58.042Z,10.60
2023-02-18T10:24:31.316Z,10.70
2023-02-18T10:27:01.748Z,10.60
2023-02-18T10:29:32.442Z,10.60
2023-02-18T10:32:07.012Z,10.60
2023-02-18T10:34:42.475Z,10.60
2023-02-18T10:37:35.686Z,10.60
2023-02-18T10:40:12.258Z,10.60
2023-02-18T10:42:55.446Z,10.60
2023-02-18T10:45:34.859Z,10.70
2023-02-18T10:48:25.617Z,10.50
2023-02-18T10:50:54.328Z,10.60
2023-02-18T10:53:30.797Z,10.60
2023-02-18T10:55:59.370Z,10.60
2023-02-18T10:58:32.982Z,10.60
2023-02-18T11:01:05.158Z,10.60
2023-02-18T11:03:45.293Z,10.60
2023-02-18T11:06:24.166Z,10.60
2023-02-18T11:08:54.711Z,10.70
2023-02-18T11:11:26.433Z,10.70
2023-02-18T11:13:57.856Z,10.70
2023-02-18T11:16:38.808Z,10.70
2023-02-18T11:19:07.005Z,10.70
2023-02-18T11:21:38.073Z,10.70
2023-02-18T11:24:10.797Z,10.70
2023-02-18T11:26:42.628Z,10.60
2023-02-18T11:29:21.604Z,10.60
2023-02-18T11:31:52.299Z,10.60
2023-02-18T11:34:24.204Z,10.60
2023-02-18T11:36:53.198Z,10.70
2023-02-18T11:39:24.595Z,10.60
2023-02-18T11:41:57.780Z,10.60
2023-02-18T11:44:30.668Z,10.60
2023-02-18T11:47:02.445Z,10.60
2023-02-18T11:49:32.251Z,10.50
2023-02-18T11:52:20.333Z,10.50
2023-02-18T11:55:02.683Z,10.50
2023-02-18T11:57:31.779Z,10.60
2023-02-18T12:00:01.986Z,10.50
2023-02-18T12:02:40.143Z,10.50
2023-02-18T12:05:15.679Z,10.50
2023-02-18T12:07:47.099Z,10.50
2023-02-18T12:10:22.428Z,10.40
2023-02-18T12:12:55.781Z,10.40
2023-02-18T12:15:30.364Z,10.40
2023-02-18T12:18:16.388Z,10.40
2023-02-18T12:21:16.742Z,10.40
2023-02-18T12:23:57.040Z,10.40
2023-02-18T12:26:29.814Z,10.50
2023-02-18T12:29:10.374Z,10.50
2023-02-18T12:31:55.638Z,10.50
2023-02-18T12:34:40.359Z,10.50
2023-02-18T12:37:15.864Z,10.50
2023-02-18T12:40:02.105Z,10.40
2023-02-18T12:42:46.003Z,10.40
2023-02-18T12:45:49.630Z,10.40
2023-02-18T12:48:39.456Z,10.40
2023-02-18T12:51:25.663Z,10.40
2023-02-18T12:54:24.364Z,10.40
2023-02-18T12:57:08.548Z,10.40
2023-02-18T12:59:58.324Z,10.30
2023-02-18T13:02:50.563Z,10.30
2023-02-18T13:05:32.158Z,10.40
2023-02-18T13:08:11.596Z,10.40
2023-02-18T13:11:14.531Z,10.40
2023-02-18T13:13:48.706Z,10.30
2023-02-18T13:16:19.744Z,10.40
2023-02-18T13:18:57.653Z,10.40
2023-02-18T13:21:28.138Z,10.40
2023-02-18T13:24:01.253Z,10.40
2023-02-18T13:26:32.082Z,10.40
2023-02-18T13:29:17.355Z,10.50
2023-02-18T13:31:58.470Z,10.50
2023-02-18T13:34:32.461Z,10.60
2023-02-18T13:37:12.082Z,10.60
2023-02-18T13:39:48.676Z,10.60
2023-02-18T13:42:36.698Z,10.60
2023-02-18T13:45:26.603Z,10.60
2023-02-18T13:47:55.597Z,10.50
2023-02-18T13:50:42.039Z,10.50
2023-02-18T13:53:30.416Z,10.50
2023-02-18T13:56:02.634Z,10.50
2023-02-18T13:58:36.608Z,10.40
2023-02-18T14:01:08.442Z,10.40
2023-02-18T14:03:52.481Z,10.40
2023-02-18T14:06:22.832Z,10.40
2023-02-18T14:09:02.947Z,10.40
2023-02-18T14:11:40.560Z,10.40
2023-02-18T14:14:45.197Z,10.40
2023-02-18T14:17:31.992Z,10.40
2023-02-18T14:20:46.677Z,10.40
2023-02-18T14:23:59.365Z,10.40
2023-02-18T14:26:33.092Z,10.30
2023-02-18T14:29:13.025Z,10.30
2023-02-18T14:31:54.428Z,10.30
2023-02-18T14:35:03.310Z,10.30
2023-02-18T14:38:17.077Z,10.30
2023-02-18T14:41:10.274Z,10.40
2023-02-18T14:44:03.292Z,10.50
2023-02-18T14:46:42.096Z,10.50
2023-02-18T14:49:33.265Z,10.50
2023-02-18T14:52:01.900Z,10.40
2023-02-18T14:54:32.242Z,10.40
2023-02-18T14:57:02.945Z,10.40
2023-02-18T14:59:37.214Z,10.40
2023-02-18T15:02:05.500Z,10.30
2023-02-18T15:04:33.570Z,10.30
2023-02-18T15:07:03.507Z,10.20
2023-02-18T15:09:32.773Z,10.20
2023-02-18T15:12:04.495Z,10.20
2023-02-18T15:14:37.377Z,10.20
2023-02-18T15:17:07.368Z,10.20
2023-02-18T15:19:41.179Z,10.10
2023-02-18T15:22:18.125Z,10.00
2023-02-18T15:24:47.114Z,9.90
2023-02-18T15:27:17.746Z,10.00
2023-02-18T15:29:51.350Z,9.90
2023-02-18T15:32:21.418Z,9.90
2023-02-18T15:34:52.801Z,10.00
2023-02-18T15:37:21.004Z,10.10
2023-02-18T15:39:50.040Z,10.00
2023-02-18T15:42:27.199Z,10.10
2023-02-18T15:45:03.367Z,10.10
2023-02-18T15:47:32.293Z,10.00
2023-02-18T15:50:03.512Z,10.00
2023-02-18T15:52:35.119Z,9.90
2023-02-18T15:55:09.049Z,9.90
2023-02-18T15:57:37.994Z,9.90
2023-02-18T16:00:17.279Z,9.90
2023-02-18T16:02:56.492Z,9.80
2023-02-18T16:05:29.175Z,9.80
2023-02-18T16:08:01.507Z,9.80
2023-02-18T16:10:47.387Z,9.80
2023-02-18T16:13:17.754Z,9.80
2023-02-18T16:15:49.350Z,9.70
2023-02-18T16:18:31.134Z,9.70
2023-02-18T16:21:03.381Z,9.70
2023-02-18T16:23:36.043Z,9.70
2023-02-18T16:26:22.097Z,9.70
2023-02-18T16:28:53.888Z,9.70
2023-02-18T16:31:23.706Z,9.60
2023-02-18T16:33:52.057Z,9.60
2023-02-18T16:36:22.817Z,9.50
2023-02-18T16:38:50.893Z,9.50
2023-02-18T16:41:19.734Z,9.50
2023-02-18T16:43:48.284Z,9.50
2023-02-18T16:46:18.854Z,9.50
2023-02-18T16:48:51.709Z,9.50
2023-02-18T16:51:24.376Z,9.50
2023-02-18T16:53:52.968Z,9.40
2023-02-18T16:56:23.200Z,9.40
2023-02-18T16:58:52.115Z,9.40
2023-02-18T17:01:26.344Z,9.40
2023-02-18T17:03:56.682Z,9.40
2023-02-18T17:06:25.037Z,9.40
2023-02-18T17:08:53.603Z,9.40
2023-02-18T17:11:23.752Z,9.30
2023-02-18T17:13:52.926Z,9.30
2023-02-18T17:16:22.935Z,9.20
2023-02-18T17:18:51.341Z,9.20
2023-02-18T17:21:23.612Z,9.10
2023-02-18T17:23:52.621Z,9.10
2023-02-18T17:26:22.989Z,9.10
2023-02-18T17:28:52.594Z,9.10
2023-02-18T17:31:24.427Z,9.10
2023-02-18T17:33:54.377Z,9.10
2023-02-18T17:36:24.133Z,9.10
2023-02-18T17:38:52.581Z,9.10
2023-02-18T17:41:20.987Z,9.10
2023-02-18T17:43:49.345Z,9.10
2023-02-18T17:46:19.909Z,9.10
2023-02-18T17:48:48.560Z,9.10
2023-02-18T17:51:26.289Z,9.00
2023-02-18T17:53:54.747Z,9.00
2023-02-18T17:56:22.915Z,9.00
2023-02-18T17:58:51.390Z,9.00
2023-02-18T18:01:21.030Z,9.00
2023-02-18T18:03:49.477Z,9.10
2023-02-18T18:06:19.218Z,9.10
2023-02-18T18:08:49.455Z,9.10
2023-02-18T18:11:20.080Z,9.00
2023-02-18T18:13:48.489Z,9.00
2023-02-18T18:16:18.668Z,9.00
2023-02-18T18:18:46.847Z,9.00
2023-02-18T18:21:21.859Z,9.00
2023-02-18T18:23:51.875Z,9.00
2023-02-18T18:26:20.084Z,9.00
2023-02-18T18:28:48.549Z,9.00
2023-02-18T18:31:19.702Z,9.10
2023-02-18T18:33:50.515Z,9.00
2023-02-18T18:36:20.535Z,9.10
2023-02-18T18:38:49.105Z,9.10
2023-02-18T18:41:20.629Z,9.10
2023-02-18T18:43:49.356Z,9.10
2023-02-18T18:46:17.665Z,9.10
2023-02-18T18:48:45.986Z,9.20
2023-02-18T18:51:16.962Z,9.20
2023-02-18T18:53:45.415Z,9.20
2023-02-18T18:56:14.586Z,9.20
2023-02-18T18:58:44.247Z,9.20
2023-02-18T19:01:17.498Z,9.10
2023-02-18T19:03:46.287Z,9.10
2023-02-18T19:06:16.158Z,9.10
2023-02-18T19:08:45.216Z,9.20
2023-02-18T19:11:14.064Z,9.10
2023-02-18T19:13:42.246Z,9.20
2023-02-18T19:16:19.178Z,9.20
2023-02-18T19:18:47.918Z,9.10
2023-02-18T19:21:16.724Z,9.20
2023-02-18T19:23:45.004Z,9.10
2023-02-18T19:26:15.801Z,9.10
2023-02-18T19:28:44.515Z,9.10
2023-02-18T19:31:14.390Z,9.10
2023-02-18T19:33:45.564Z,9.00
2023-02-18T19:36:14.728Z,9.10
2023-02-18T19:38:42.951Z,9.00
2023-02-18T19:41:12.825Z,9.00
2023-02-18T19:43:41.750Z,9.00
2023-02-18T19:46:10.782Z,9.00
2023-02-18T19:48:40.642Z,9.00
2023-02-18T19:51:09.925Z,9.00
2023-02-18T19:53:38.871Z,9.00
2023-02-18T19:56:07.952Z,9.00
2023-02-18T19:58:36.432Z,9.00
2023-02-18T20:01:04.945Z,9.00
2023-02-18T20:03:33.189Z,9.00
2023-02-18T20:06:02.656Z,9.00
2023-02-18T20:08:31.223Z,9.00
2023-02-18T20:10:59.705Z,9.00
2023-02-18T20:13:28.372Z,8.90
2023-02-18T20:15:56.643Z,8.90
2023-02-18T20:18:25.133Z,8.90
2023-02-18T20:20:53.267Z,8.80
2023-02-18T20:23:22.947Z,8.80
2023-02-18T20:25:51.186Z,8.80
2023-02-18T20:28:19.489Z,8.80
2023-02-18T20:30:47.888Z,8.70
2023-02-18T20:33:15.956Z,8.70
2023-02-18T20:35:44.409Z,8.70
2023-02-18T20:38:12.494Z,8.70
2023-02-18T20:40:41.930Z,8.70
2023-02-18T20:43:10.314Z,8.70
2023-02-18T20:45:38.406Z,8.70
2023-02-18T20:48:06.913Z,8.70
2023-02-18T20:50:35.077Z,8.70
2023-02-18T20:53:03.078Z,8.70
2023-02-18T20:55:31.564Z,8.70
2023-02-18T20:58:01.033Z,8.70
2023-02-18T21:00:29.209Z,8.70
2023-02-18T21:02:57.546Z,8.70
2023-02-18T21:05:25.861Z,8.70
2023-02-18T21:07:54.204Z,8.70
2023-02-18T21:10:22.364Z,8.70
2023-02-18T21:12:50.513Z,8.60
2023-02-18T21:15:20.161Z,8.60
2023-02-18T21:17:48.298Z,8.60
2023-02-18T21:20:16.670Z,8.60
2023-02-18T21:22:44.729Z,8.50
2023-02-18T21:25:13.935Z,8.50
2023-02-18T21:27:42.314Z,8.50
2023-02-18T21:30:11.374Z,8.50
2023-02-18T21:32:40.844Z,8.50
2023-02-18T21:35:09.143Z,8.50
2023-02-18T21:37:37.443Z,8.50
2023-02-18T21:40:06.378Z,8.40
2023-02-18T21:42:34.666Z,8.40
2023-02-18T21:45:04.473Z,8.40
2023-02-18T21:47:32.602Z,8.40
2023-02-18T21:50:02.530Z,8.30
2023-02-18T21:52:32.367Z,8.30
2023-02-18T21:55:00.588Z,8.30
2023-02-18T21:57:29.084Z,8.20
2023-02-18T21:59:57.220Z,8.20
2023-02-18T22:02:27.169Z,8.20
2023-02-18T22:04:55.534Z,8.10
2023-02-18T22:07:26.703Z,8.10
2023-02-18T22:09:55.000Z,8.00
2023-02-18T22:12:24.282Z,8.00
2023-02-18T22:14:52.663Z,8.00
2023-02-18T22:17:22.140Z,8.00
2023-02-18T22:19:50.494Z,7.90
2023-02-18T22:22:18.913Z,7.90
2023-02-18T22:24:48.665Z,7.90
2023-02-18T22:27:19.857Z,7.80
2023-02-18T22:29:48.492Z,7.80
2023-02-18T22:32:17.712Z,7.80
2023-02-18T22:34:48.948Z,7.80
2023-02-18T22:37:17.383Z,7.80
2023-02-18T22:39:45.609Z,7.80
2023-02-18T22:42:14.989Z,7.80
2023-02-18T22:44:43.308Z,7.80
2023-02-18T22:47:11.395Z,7.80
2023-02-18T22:49:39.896Z,7.80
2023-02-18T22:52:07.952Z,7.80
2023-02-18T22:54:36.128Z,7.80
2023-02-18T22:57:04.368Z,7.80
2023-02-18T22:59:34.069Z,7.80
2023-02-18T23:02:02.349Z,7.70
2023-02-18T23:04:30.506Z,7.70
2023-02-18T23:06:58.673Z,7.70
2023-02-18T23:09:26.945Z,7.70
2023-02-18T23:11:58.097Z,7.70
2023-02-18T23:14:28.204Z,7.60
2023-02-18T23:17:14.581Z,7.60
2023-02-18T23:19:44.852Z,7.60
2023-02-18T23:22:15.855Z,7.60
2023-02-18T23:24:45.790Z,7.50
2023-02-18T23:27:15.119Z,7.50
2023-02-18T23:29:43.573Z,7.50
2023-02-18T23:32:13.430Z,7.50
2023-02-18T23:34:41.568Z,7.50
2023-02-18T23:37:10.111Z,7.40
2023-02-18T23:39:39.839Z,7.40
2023-02-18T23:42:08.275Z,7.40
2023-02-18T23:44:36.618Z,7.40
2023-02-18T23:47:04.781Z,7.40
2023-02-18T23:49:34.600Z,7.30
2023-02-18T23:52:02.709Z,7.30
2023-02-18T23:54:30.880Z,7.30
2023-02-18T23:56:59.028Z,7.30
2023-02-18T23:59:27.633Z,7.30
